Terminal Aerodrome Forecast
Issued by NWS

Home | Current Version | Previous Version | Text Only | Print | Product List | Glossary On
Versions: 1 2 3 4 5 6 7 8 9 10 11 12 13 14 15 16
000
FTUS43 KJKL 272300 RRA
TAFSME
TAF
KSME 272358Z 2800/2824 27005KT P6SM VCTS SCT040CB
     FM280700 VRB03KT 4SM BR BKN025
     FM281100 00000KT 2SM BR OVC003
     FM281300 VRB03KT 4SM BR BKN025
     FM281400 29010KT P6SM BKN050=

USA.gov is the U.S. government's official web portal to all federal, state and local government web resources and services.